Time,TemperatureF,DewpointF,PressureIn,WindDirection,WindDirectionDegrees,WindSpeedMPH,WindSpeedGustMPH,Humidity,HourlyPrecipIn,Conditions,Clouds,dailyrainin,SoftwareType,DateUTC
2013-04-23 00:08:00,50.6,35.0,30.17,East,84,1.0,5.0,55,0.00,,,0.00,weatherlink.com 1.10,2013-04-23 04:08:00,
2013-04-23 00:23:00,49.9,35.0,30.16,SE,125,1.0,7.0,56,0.00,,,0.00,weatherlink.com 1.10,2013-04-23 04:23:00,
2013-04-23 00:38:00,48.9,35.0,30.16,North,352,0.0,4.0,59,0.00,,,0.00,weatherlink.com 1.10,2013-04-23 04:38:00,
2013-04-23 00:53:00,48.5,35.0,30.17,SSE,167,1.0,5.0,59,0.00,,,0.00,weatherlink.com 1.10,2013-04-23 04:53:00,
2013-04-23 01:08:00,47.7,35.0,30.16,SE,125,0.0,3.0,61,0.00,,,0.00,weatherlink.com 1.10,2013-04-23 05:08:00,
2013-04-23 01:23:00,47.3,35.0,30.16,South,181,3.0,4.0,62,0.00,,,0.00,weatherlink.com 1.10,2013-04-23 05:23:00,
2013-04-23 01:38:00,46.9,35.0,30.15,ESE,122,2.0,5.0,63,0.00,,,0.00,weatherlink.com 1.10,2013-04-23 05:38:00,
2013-04-23 01:53:00,46.5,35.0,30.15,ESE,107,0.0,4.0,64,0.00,,,0.00,weatherlink.com 1.10,2013-04-23 05:53:00,
2013-04-23 02:08:00,45.9,35.0,30.14,SE,143,1.0,3.0,65,0.00,,,0.00,weatherlink.com 1.10,2013-04-23 06:08:00,
2013-04-23 02:23:00,45.7,35.0,30.14,SSW,212,0.0,3.0,66,0.00,,,0.00,weatherlink.com 1.10,2013-04-23 06:23:00,
2013-04-23 02:39:00,45.6,35.0,30.13,SE,136,2.0,4.0,67,0.00,,,0.00,weatherlink.com 1.10,2013-04-23 06:39:00,
2013-04-23 02:54:00,45.3,35.0,30.12,SW,222,1.0,3.0,68,0.00,,,0.00,weatherlink.com 1.10,2013-04-23 06:54:00,
2013-04-23 03:09:00,45.0,35.0,30.12,East,84,1.0,3.0,69,0.00,,,0.00,weatherlink.com 1.10,2013-04-23 07:09:00,
2013-04-23 03:23:00,44.4,36.0,30.11,SE,134,0.0,2.0,71,0.00,,,0.00,weatherlink.com 1.10,2013-04-23 07:23:00,
2013-04-23 03:39:00,44.3,35.0,30.11,SE,131,0.0,2.0,71,0.00,,,0.00,weatherlink.com 1.10,2013-04-23 07:39:00,
2013-04-23 03:54:00,44.1,36.0,30.10,SE,145,1.0,3.0,72,0.00,,,0.00,weatherlink.com 1.10,2013-04-23 07:54:00,
2013-04-23 04:09:00,44.1,36.0,30.09,SE,145,0.0,3.0,73,0.00,,,0.00,weatherlink.com 1.10,2013-04-23 08:09:00,
2013-04-23 04:24:00,44.1,36.0,30.08,East,94,0.0,3.0,74,0.00,,,0.00,weatherlink.com 1.10,2013-04-23 08:24:00,
2013-04-23 04:39:00,44.4,37.0,30.07,ESE,118,0.0,5.0,74,0.00,,,0.00,weatherlink.com 1.10,2013-04-23 08:39:00,
2013-04-23 04:54:00,44.3,37.0,30.07,ESE,115,1.0,3.0,74,0.00,,,0.00,weatherlink.com 1.10,2013-04-23 08:54:00,
2013-04-23 05:09:00,44.4,37.0,30.06,SE,134,1.0,6.0,75,0.00,,,0.00,weatherlink.com 1.10,2013-04-23 09:09:00,
2013-04-23 05:24:00,44.5,37.0,30.05,South,172,1.0,4.0,75,0.00,,,0.00,weatherlink.com 1.10,2013-04-23 09:24:00,
2013-04-23 05:39:00,44.5,37.0,30.05,SW,233,3.0,4.0,75,0.00,,,0.00,weatherlink.com 1.10,2013-04-23 09:39:00,
2013-04-23 05:54:00,44.7,38.0,30.06,South,172,1.0,3.0,76,0.00,,,0.00,weatherlink.com 1.10,2013-04-23 09:54:00,
2013-04-23 06:09:00,44.9,38.0,30.05,SSE,160,1.0,3.0,76,0.00,,,0.00,weatherlink.com 1.10,2013-04-23 10:09:00,
2013-04-23 06:24:00,45.2,38.0,30.05,ESE,120,2.0,4.0,76,0.00,,,0.00,weatherlink.com 1.10,2013-04-23 10:24:00,
2013-04-23 06:39:00,45.7,38.0,30.05,ESE,122,1.0,4.0,75,0.00,,,0.00,weatherlink.com 1.10,2013-04-23 10:39:00,
2013-04-23 06:54:00,46.5,38.0,30.05,SSE,165,2.0,6.0,73,0.00,,,0.00,weatherlink.com 1.10,2013-04-23 10:54:00,
2013-04-23 07:09:00,47.1,38.0,30.05,South,170,2.0,5.0,72,0.00,,,0.00,weatherlink.com 1.10,2013-04-23 11:09:00,
2013-04-23 07:24:00,47.5,39.0,30.04,East,96,2.0,4.0,72,0.00,,,0.00,weatherlink.com 1.10,2013-04-23 11:24:00,
2013-04-23 07:39:00,47.7,39.0,30.03,SE,125,1.0,6.0,73,0.00,,,0.00,weatherlink.com 1.10,2013-04-23 11:39:00,
2013-04-23 07:54:00,48.1,40.0,30.04,South,176,1.0,6.0,73,0.00,,,0.00,weatherlink.com 1.10,2013-04-23 11:54:00,
2013-04-23 08:09:00,48.7,40.0,30.05,SW,226,2.0,5.0,72,0.00,,,0.00,weatherlink.com 1.10,2013-04-23 12:09:00,
2013-04-23 08:24:00,49.4,41.0,30.05,South,177,1.0,4.0,72,0.00,,,0.00,weatherlink.com 1.10,2013-04-23 12:24:00,
2013-04-23 08:39:00,50.5,41.0,30.05,South,186,2.0,3.0,71,0.00,,,0.00,weatherlink.com 1.10,2013-04-23 12:39:00,
2013-04-23 08:54:00,52.2,42.0,30.05,SSE,153,2.0,3.0,68,0.00,,,0.00,weatherlink.com 1.10,2013-04-23 12:54:00,
2013-04-23 09:09:00,52.8,42.0,30.04,SSE,162,0.0,4.0,67,0.00,,,0.00,weatherlink.com 1.10,2013-04-23 13:09:00,
2013-04-23 09:24:00,52.6,44.0,30.03,SSE,153,1.0,4.0,72,0.00,,,0.00,weatherlink.com 1.10,2013-04-23 13:24:00,
2013-04-23 09:40:00,51.2,45.0,30.02,SSE,147,0.0,2.0,79,0.00,,,0.00,weatherlink.com 1.10,2013-04-23 13:40:00,
2013-04-23 09:55:00,51.0,46.0,30.02,SE,131,1.0,1.0,82,0.00,,,0.00,weatherlink.com 1.10,2013-04-23 13:55:00,
2013-04-23 10:10:00,52.8,45.0,30.02,WSW,239,1.0,5.0,76,0.00,,,0.00,weatherlink.com 1.10,2013-04-23 14:10:00,
2013-04-23 10:25:00,54.7,46.0,30.01,SSW,195,1.0,6.0,73,0.00,,,0.00,weatherlink.com 1.10,2013-04-23 14:25:00,
2013-04-23 10:40:00,56.4,47.0,30.01,SW,232,3.0,8.0,70,0.00,,,0.00,weatherlink.com 1.10,2013-04-23 14:40:00,
2013-04-23 10:55:00,57.8,46.0,30.00,WSW,257,5.0,7.0,64,0.00,,,0.00,weatherlink.com 1.10,2013-04-23 14:55:00,
2013-04-23 11:10:00,58.7,46.0,30.00,WSW,245,4.0,8.0,64,0.00,,,0.00,weatherlink.com 1.10,2013-04-23 15:10:00,
2013-04-23 11:25:00,59.5,47.0,29.99,SE,142,3.0,7.0,63,0.00,,,0.00,weatherlink.com 1.10,2013-04-23 15:25:00,
2013-04-23 11:40:00,60.9,47.0,29.99,SSE,155,3.0,10.0,60,0.00,,,0.00,weatherlink.com 1.10,2013-04-23 15:40:00,
2013-04-23 11:55:00,61.0,46.0,29.98,WNW,290,2.0,14.0,58,0.00,,,0.00,weatherlink.com 1.10,2013-04-23 15:55:00,
2013-04-23 12:10:00,61.6,47.0,29.98,ESE,119,3.0,11.0,59,0.00,,,0.00,weatherlink.com 1.10,2013-04-23 16:10:00,
2013-04-23 12:25:00,61.9,47.0,29.97,SSW,206,4.0,10.0,58,0.00,,,0.00,weatherlink.com 1.10,2013-04-23 16:25:00,
2013-04-23 12:40:00,62.0,46.0,29.96,ESE,121,2.0,9.0,57,0.00,,,0.00,weatherlink.com 1.10,2013-04-23 16:40:00,
2013-04-23 12:55:00,62.6,46.0,29.96,West,277,1.0,10.0,55,0.00,,,0.00,weatherlink.com 1.10,2013-04-23 16:55:00,
2013-04-23 13:10:00,63.6,46.0,29.96,ESE,117,1.0,10.0,53,0.00,,,0.00,weatherlink.com 1.10,2013-04-23 17:10:00,
2013-04-23 13:25:00,64.4,46.0,29.94,SE,143,4.0,13.0,52,0.00,,,0.00,weatherlink.com 1.10,2013-04-23 17:25:00,
2013-04-23 13:40:00,65.1,46.0,29.93,SSE,156,4.0,12.0,51,0.00,,,0.00,weatherlink.com 1.10,2013-04-23 17:40:00,
2013-04-23 13:55:00,64.8,47.0,29.93,WSW,238,4.0,11.0,52,0.00,,,0.00,weatherlink.com 1.10,2013-04-23 17:55:00,
2013-04-23 14:10:00,64.6,47.0,29.92,SW,225,4.0,11.0,53,0.00,,,0.00,weatherlink.com 1.10,2013-04-23 18:10:00,
2013-04-23 14:25:00,64.8,48.0,29.91,SSE,158,3.0,11.0,54,0.00,,,0.00,weatherlink.com 1.10,2013-04-23 18:25:00,
2013-04-23 14:40:00,65.2,48.0,29.90,South,172,5.0,9.0,54,0.00,,,0.00,weatherlink.com 1.10,2013-04-23 18:40:00,
2013-04-23 14:56:00,64.9,48.0,29.89,SW,229,2.0,12.0,54,0.00,,,0.00,weatherlink.com 1.10,2013-04-23 18:56:00,
2013-04-23 15:11:00,64.1,50.0,29.90,NW,305,10.0,10.0,60,0.00,,,0.00,weatherlink.com 1.10,2013-04-23 19:11:00,
2013-04-23 15:26:00,61.4,51.0,29.89,NNW,328,0.0,9.0,69,0.01,,,0.01,weatherlink.com 1.10,2013-04-23 19:26:00,
2013-04-23 15:41:00,59.6,53.0,29.90,SSW,197,1.0,3.0,78,0.03,,,0.03,weatherlink.com 1.10,2013-04-23 19:41:00,
2013-04-23 15:56:00,57.8,53.0,29.92,WSW,248,2.0,6.0,84,0.06,,,0.06,weatherlink.com 1.10,2013-04-23 19:56:00,
2013-04-23 16:11:00,55.6,53.0,29.92,NNW,339,0.0,10.0,89,0.14,,,0.14,weatherlink.com 1.10,2013-04-23 20:11:00,
2013-04-23 16:26:00,54.5,52.0,29.92,West,281,3.0,7.0,92,0.15,,,0.16,weatherlink.com 1.10,2013-04-23 20:26:00,
2013-04-23 16:41:00,54.0,52.0,29.91,West,279,1.0,3.0,93,0.16,,,0.19,weatherlink.com 1.10,2013-04-23 20:41:00,
2013-04-23 16:56:00,53.8,52.0,29.90,West,274,0.0,2.0,94,0.16,,,0.22,weatherlink.com 1.10,2013-04-23 20:56:00,
2013-04-23 17:11:00,53.8,52.0,29.90,SSE,156,1.0,1.0,94,0.09,,,0.23,weatherlink.com 1.10,2013-04-23 21:11:00,
2013-04-23 17:26:00,53.9,52.0,29.89,SSW,204,0.0,3.0,94,0.08,,,0.25,weatherlink.com 1.10,2013-04-23 21:26:00,
2013-04-23 17:41:00,54.2,53.0,29.89,SW,232,1.0,2.0,95,0.06,,,0.25,weatherlink.com 1.10,2013-04-23 21:41:00,
2013-04-23 17:56:00,54.2,53.0,29.88,WSW,243,0.0,2.0,94,0.04,,,0.26,weatherlink.com 1.10,2013-04-23 21:56:00,
2013-04-23 18:11:00,54.4,53.0,29.87,West,269,1.0,4.0,95,0.03,,,0.26,weatherlink.com 1.10,2013-04-23 22:11:00,
2013-04-23 18:26:00,54.4,53.0,29.86,South,181,0.0,2.0,95,0.01,,,0.26,weatherlink.com 1.10,2013-04-23 22:26:00,
2013-04-23 18:41:00,54.4,53.0,29.87,WNW,290,1.0,6.0,95,0.02,,,0.27,weatherlink.com 1.10,2013-04-23 22:41:00,
2013-04-23 18:56:00,53.3,52.0,29.87,WNW,288,1.0,5.0,94,0.03,,,0.29,weatherlink.com 1.10,2013-04-23 22:56:00,
2013-04-23 19:11:00,51.6,49.0,29.88,WNW,287,3.0,7.0,92,0.04,,,0.30,weatherlink.com 1.10,2013-04-23 23:11:00,
2013-04-23 19:26:00,46.7,45.0,29.88,NNW,337,2.0,6.0,92,0.04,,,0.30,weatherlink.com 1.10,2013-04-23 23:26:00,
2013-04-23 19:41:00,44.0,42.0,29.88,NNE,14,0.0,8.0,94,0.03,,,0.30,weatherlink.com 1.10,2013-04-23 23:41:00,
2013-04-23 19:56:00,43.4,42.0,29.88,NW,326,1.0,5.0,95,0.01,,,0.30,weatherlink.com 1.10,2013-04-23 23:56:00,
2013-04-23 20:11:00,42.6,41.0,29.89,NW,326,1.0,6.0,95,0.01,,,0.31,weatherlink.com 1.10,2013-04-24 00:11:00,
2013-04-23 20:26:00,42.2,41.0,29.89,North,349,0.0,2.0,96,0.01,,,0.31,weatherlink.com 1.10,2013-04-24 00:26:00,
2013-04-23 20:41:00,41.9,41.0,29.89,NW,322,0.0,4.0,96,0.02,,,0.32,weatherlink.com 1.10,2013-04-24 00:41:00,
2013-04-23 20:56:00,41.9,41.0,29.90,NNW,345,2.0,5.0,96,0.03,,,0.33,weatherlink.com 1.10,2013-04-24 00:56:00,
2013-04-23 21:11:00,41.9,41.0,29.89,NNE,14,1.0,3.0,96,0.04,,,0.35,weatherlink.com 1.10,2013-04-24 01:11:00,
2013-04-23 21:26:00,42.0,41.0,29.91,NW,326,0.0,4.0,96,0.07,,,0.38,weatherlink.com 1.10,2013-04-24 01:26:00,
2013-04-23 21:41:00,42.1,41.0,29.91,North,11,0.0,2.0,96,0.07,,,0.39,weatherlink.com 1.10,2013-04-24 01:41:00,
2013-04-23 21:56:00,42.1,41.0,29.91,NNW,342,2.0,4.0,96,0.07,,,0.41,weatherlink.com 1.10,2013-04-24 01:56:00,
2013-04-23 22:11:00,42.1,41.0,29.91,North,4,0.0,2.0,96,0.06,,,0.41,weatherlink.com 1.10,2013-04-24 02:11:00,
2013-04-23 22:26:00,42.0,41.0,29.91,NNW,345,1.0,3.0,97,0.04,,,0.42,weatherlink.com 1.10,2013-04-24 02:26:00,
2013-04-23 22:42:00,41.7,41.0,29.90,North,353,0.0,2.0,97,0.04,,,0.44,weatherlink.com 1.10,2013-04-24 02:42:00,
2013-04-23 22:56:00,41.6,41.0,29.90,NNW,346,0.0,2.0,97,0.04,,,0.45,weatherlink.com 1.10,2013-04-24 02:56:00,
2013-04-23 23:11:00,41.5,41.0,29.90,NNW,342,0.0,2.0,97,0.06,,,0.47,weatherlink.com 1.10,2013-04-24 03:11:00,
2013-04-23 23:26:00,41.4,41.0,29.89,NW,326,0.0,2.0,97,0.06,,,0.48,weatherlink.com 1.10,2013-04-24 03:26:00,
2013-04-23 23:41:00,41.3,41.0,29.88,NW,321,1.0,2.0,97,0.05,,,0.49,weatherlink.com 1.10,2013-04-24 03:41:00,
2013-04-23 23:56:00,41.3,41.0,29.88,NW,324,1.0,2.0,97,0.05,,,0.50,weatherlink.com 1.10,2013-04-24 03:56:00,